Warrior — WDI2675 — position and weather

sailwx.info

Track history (hours):
 
Tides and Currents Weather Stations Pressure Air Temp Water Temp Dewpoint Dewpoint Depression Visibility Wind Speed Wind Dir Waves Ship Positions

Warrior

Owner: Versaggi Shrimp Corp, Tampa, FL. More information available from US FCC via Universal Licensing System and Coast Guard Vessel Documentation Center.

Last reported at 2018-Feb-15 21:39 UTC. Time now 2018-Feb-22 18:44 UTC.
Position N 27°46' W 082°31'.

MMSI: 367680570.

Date/timePositionNaut miles runAvg speedWind from/ knotsBaromVisibWave heightAir tempDewpointWater temp
2018-Feb-15 21:39N 27°46' W 082°31'1 6.9
2018-Feb-15 21:27N 27°47' W 082°31'3 7.0
2018-Feb-15 21:00N 27°48' W 082°28'3 5.7
2018-Feb-15 20:30N 27°51' W 082°27'4 7.7
2018-Feb-15 20:00N 27°55' W 082°26'1 2.3
2018-Feb-15 19:30N 27°56' W 082°26'0 0.0
2018-Feb-15 19:00N 27°56' W 082°26'0 0.0
2018-Feb-15 18:30N 27°56' W 082°26'0 0.0
2018-Feb-15 17:59N 27°56' W 082°26'0 0.0
2018-Feb-15 17:30N 27°56' W 082°26'0 0.0
2018-Feb-15 17:00N 27°56' W 082°26'0 0.0
2018-Feb-15 16:30N 27°56' W 082°26'0 0.0
2018-Feb-15 16:00N 27°56' W 082°26'0 0.0
2018-Feb-15 00:19N 27°56' W 082°26'0 0.0
2018-Feb-15 00:00N 27°56' W 082°26'0 0.0
2018-Feb-14 23:30N 27°56' W 082°26'0 0.0
2018-Feb-14 23:00N 27°56' W 082°26'0 0.0
2018-Feb-14 22:30N 27°56' W 082°26'0 0.0
2018-Feb-14 22:00N 27°56' W 082°26'0 0.0
2018-Feb-14 21:30N 27°56' W 082°26'0 0.0
2018-Feb-14 20:55N 27°56' W 082°26'0 0.0
2018-Feb-14 20:30N 27°56' W 082°26'0 0.0
2018-Feb-14 20:00N 27°56' W 082°26'0 0.0
2018-Feb-14 19:29N 27°56' W 082°26'0 0.0
2018-Feb-14 19:00N 27°56' W 082°26'0 0.0
2018-Feb-14 18:30N 27°56' W 082°26'0 0.0
2018-Feb-14 18:00N 27°56' W 082°26'0 0.0
2018-Feb-14 17:30N 27°56' W 082°26'0 0.0
2018-Feb-14 17:00N 27°56' W 082°26'0 0.0
2018-Feb-14 16:30N 27°56' W 082°26'0 0.1
2018-Feb-14 16:00N 27°56' W 082°26'0 0.0
2018-Feb-14 15:29N 27°56' W 082°26'0 0.0
2018-Feb-14 15:00N 27°56' W 082°26'0 0.1
2018-Feb-14 14:29N 27°56' W 082°26'0 0.0
2018-Feb-14 14:00N 27°56' W 082°26'0 0.0
2018-Feb-14 13:30N 27°56' W 082°26'0 0.0
2018-Feb-14 12:59N 27°56' W 082°26'0 0.0
2018-Feb-14 12:30N 27°56' W 082°26'0 0.0
2018-Feb-14 12:00N 27°56' W 082°26'0 0.0
2018-Feb-14 11:29N 27°56' W 082°26'0 0.0
2018-Feb-14 11:00N 27°56' W 082°26'0 0.0
2018-Feb-14 10:30N 27°56' W 082°26'0 0.0
2018-Feb-14 10:00N 27°56' W 082°26'0 0.0
2018-Feb-14 09:30N 27°56' W 082°26'0 0.0
2018-Feb-14 09:00N 27°56' W 082°26'0 0.0
2018-Feb-14 08:30N 27°56' W 082°26'0 0.0
2018-Feb-14 08:00N 27°56' W 082°26'0 0.0
2018-Feb-14 07:30N 27°56' W 082°26'0 0.0
2018-Feb-14 07:00N 27°56' W 082°26'0 0.0
2018-Feb-14 06:30N 27°56' W 082°26'0 0.0
2018-Feb-14 06:00N 27°56' W 082°26'0 0.0
2018-Feb-14 05:30N 27°56' W 082°26'0 0.0
2018-Feb-14 04:59N 27°56' W 082°26'0 0.0
2018-Feb-14 04:30N 27°56' W 082°26'0 0.0
2018-Feb-14 04:00N 27°56' W 082°26'0 0.0
2018-Feb-14 03:30N 27°56' W 082°26'0 0.0
2018-Feb-14 03:00N 27°56' W 082°26'0 0.0
2018-Feb-14 02:30N 27°56' W 082°26'0 0.0
2018-Feb-14 02:00N 27°56' W 082°26'0 0.0
2018-Feb-14 01:30N 27°56' W 082°26'0 0.0
2018-Feb-14 01:00N 27°56' W 082°26'0 0.0
2018-Feb-14 00:30N 27°56' W 082°26'0 0.0
2018-Feb-14 00:00N 27°56' W 082°26'0 0.0
2018-Feb-13 23:29N 27°56' W 082°26'0 0.0
2018-Feb-13 23:00N 27°56' W 082°26'0 0.0
2018-Feb-13 22:30N 27°56' W 082°26'0 0.0
2018-Feb-13 22:00N 27°56' W 082°26'0 0.0
2018-Feb-13 21:30N 27°56' W 082°26'0 0.0
2018-Feb-13 21:00N 27°56' W 082°26'0 0.0
2018-Feb-13 20:30N 27°56' W 082°26'0 0.0
2018-Feb-13 20:00N 27°56' W 082°26'0 0.0
2018-Feb-13 19:30N 27°56' W 082°26'0 0.0
2018-Feb-13 19:00N 27°56' W 082°26'0 0.0
2018-Feb-13 18:30N 27°56' W 082°26'0 0.0
2018-Feb-13 18:00N 27°56' W 082°26'0 0.0
2018-Feb-13 17:30N 27°56' W 082°26'0 0.0
2018-Feb-13 17:00N 27°56' W 082°26'0 0.0
2018-Feb-13 16:30N 27°56' W 082°26'0 0.0
2018-Feb-13 16:00N 27°56' W 082°26'3 6.1
2018-Feb-13 15:30N 27°53' W 082°27'4 8.0
2018-Feb-13 14:59N 27°49' W 082°27'5 7.9
2018-Feb-13 14:23N 27°46' W 082°31'  
Track history (hours):
 
Tides and Currents Weather Stations Pressure Air Temp Water Temp Dewpoint Dewpoint Depression Visibility Wind Speed Wind Dir Waves Ship Positions

Warrior

Owner: Versaggi Shrimp Corp, Tampa, FL. More information available from US FCC via Universal Licensing System and Coast Guard Vessel Documentation Center.

Last reported at 2018-Feb-15 21:39 UTC. Time now 2018-Feb-22 18:44 UTC.
Position N 27°46' W 082°31'.

MMSI: 367680570.

Date/timePositionNaut miles runAvg speedWind from/ knotsBaromVisibWave heightAir tempDewpointWater temp
2018-Feb-15 21:39N 27°46' W 082°31'1 6.9
2018-Feb-15 21:27N 27°47' W 082°31'3 7.0
2018-Feb-15 21:00N 27°48' W 082°28'3 5.7
2018-Feb-15 20:30N 27°51' W 082°27'4 7.7
2018-Feb-15 20:00N 27°55' W 082°26'1 2.3
2018-Feb-15 19:30N 27°56' W 082°26'0 0.0
2018-Feb-15 19:00N 27°56' W 082°26'0 0.0
2018-Feb-15 18:30N 27°56' W 082°26'0 0.0
2018-Feb-15 17:59N 27°56' W 082°26'0 0.0
2018-Feb-15 17:30N 27°56' W 082°26'0 0.0
2018-Feb-15 17:00N 27°56' W 082°26'0 0.0
2018-Feb-15 16:30N 27°56' W 082°26'0 0.0
2018-Feb-15 16:00N 27°56' W 082°26'0 0.0
2018-Feb-15 00:19N 27°56' W 082°26'0 0.0
2018-Feb-15 00:00N 27°56' W 082°26'0 0.0
2018-Feb-14 23:30N 27°56' W 082°26'0 0.0
2018-Feb-14 23:00N 27°56' W 082°26'0 0.0
2018-Feb-14 22:30N 27°56' W 082°26'0 0.0
2018-Feb-14 22:00N 27°56' W 082°26'0 0.0
2018-Feb-14 21:30N 27°56' W 082°26'0 0.0
2018-Feb-14 20:55N 27°56' W 082°26'0 0.0
2018-Feb-14 20:30N 27°56' W 082°26'0 0.0
2018-Feb-14 20:00N 27°56' W 082°26'0 0.0
2018-Feb-14 19:29N 27°56' W 082°26'0 0.0
2018-Feb-14 19:00N 27°56' W 082°26'0 0.0
2018-Feb-14 18:30N 27°56' W 082°26'0 0.0
2018-Feb-14 18:00N 27°56' W 082°26'0 0.0
2018-Feb-14 17:30N 27°56' W 082°26'0 0.0
2018-Feb-14 17:00N 27°56' W 082°26'0 0.0
2018-Feb-14 16:30N 27°56' W 082°26'0 0.1
2018-Feb-14 16:00N 27°56' W 082°26'0 0.0
2018-Feb-14 15:29N 27°56' W 082°26'0 0.0
2018-Feb-14 15:00N 27°56' W 082°26'0 0.1
2018-Feb-14 14:29N 27°56' W 082°26'0 0.0
2018-Feb-14 14:00N 27°56' W 082°26'0 0.0
2018-Feb-14 13:30N 27°56' W 082°26'0 0.0
2018-Feb-14 12:59N 27°56' W 082°26'0 0.0
2018-Feb-14 12:30N 27°56' W 082°26'0 0.0
2018-Feb-14 12:00N 27°56' W 082°26'0 0.0
2018-Feb-14 11:29N 27°56' W 082°26'0 0.0
2018-Feb-14 11:00N 27°56' W 082°26'0 0.0
2018-Feb-14 10:30N 27°56' W 082°26'0 0.0
2018-Feb-14 10:00N 27°56' W 082°26'0 0.0
2018-Feb-14 09:30N 27°56' W 082°26'0 0.0
2018-Feb-14 09:00N 27°56' W 082°26'0 0.0
2018-Feb-14 08:30N 27°56' W 082°26'0 0.0
2018-Feb-14 08:00N 27°56' W 082°26'0 0.0
2018-Feb-14 07:30N 27°56' W 082°26'0 0.0
2018-Feb-14 07:00N 27°56' W 082°26'0 0.0
2018-Feb-14 06:30N 27°56' W 082°26'0 0.0
2018-Feb-14 06:00N 27°56' W 082°26'0 0.0
2018-Feb-14 05:30N 27°56' W 082°26'0 0.0
2018-Feb-14 04:59N 27°56' W 082°26'0 0.0
2018-Feb-14 04:30N 27°56' W 082°26'0 0.0
2018-Feb-14 04:00N 27°56' W 082°26'0 0.0
2018-Feb-14 03:30N 27°56' W 082°26'0 0.0
2018-Feb-14 03:00N 27°56' W 082°26'0 0.0
2018-Feb-14 02:30N 27°56' W 082°26'0 0.0
2018-Feb-14 02:00N 27°56' W 082°26'0 0.0
2018-Feb-14 01:30N 27°56' W 082°26'0 0.0
2018-Feb-14 01:00N 27°56' W 082°26'0 0.0
2018-Feb-14 00:30N 27°56' W 082°26'0 0.0
2018-Feb-14 00:00N 27°56' W 082°26'0 0.0
2018-Feb-13 23:29N 27°56' W 082°26'0 0.0
2018-Feb-13 23:00N 27°56' W 082°26'0 0.0
2018-Feb-13 22:30N 27°56' W 082°26'0 0.0
2018-Feb-13 22:00N 27°56' W 082°26'0 0.0
2018-Feb-13 21:30N 27°56' W 082°26'0 0.0
2018-Feb-13 21:00N 27°56' W 082°26'0 0.0
2018-Feb-13 20:30N 27°56' W 082°26'0 0.0
2018-Feb-13 20:00N 27°56' W 082°26'0 0.0
2018-Feb-13 19:30N 27°56' W 082°26'0 0.0
2018-Feb-13 19:00N 27°56' W 082°26'0 0.0
2018-Feb-13 18:30N 27°56' W 082°26'0 0.0
2018-Feb-13 18:00N 27°56' W 082°26'0 0.0
2018-Feb-13 17:30N 27°56' W 082°26'0 0.0
2018-Feb-13 17:00N 27°56' W 082°26'0 0.0
2018-Feb-13 16:30N 27°56' W 082°26'0 0.0
2018-Feb-13 16:00N 27°56' W 082°26'3 6.1
2018-Feb-13 15:30N 27°53' W 082°27'4 8.0
2018-Feb-13 14:59N 27°49' W 082°27'5 7.9
2018-Feb-13 14:23N 27°46' W 082°31'  

Dump ship's entire track history